sensor_id;sensor_type;location;lat;lon;timestamp;P1;durP1;ratioP1;P2;durP2;ratioP2
5157;SDS011;2598;52.364;9.772;2024-02-26T00:00:36;4.37;;;1.80;;
5157;SDS011;2598;52.364;9.772;2024-02-26T00:03:02;5.27;;;2.30;;
5157;SDS011;2598;52.364;9.772;2024-02-26T00:05:28;5.30;;;2.10;;
5157;SDS011;2598;52.364;9.772;2024-02-26T00:07:56;5.73;;;2.53;;
5157;SDS011;2598;52.364;9.772;2024-02-26T00:10:22;5.20;;;2.47;;
5157;SDS011;2598;52.364;9.772;2024-02-26T00:12:49;7.37;;;2.57;;
5157;SDS011;2598;52.364;9.772;2024-02-26T00:15:15;5.80;;;2.73;;
5157;SDS011;2598;52.364;9.772;2024-02-26T00:17:41;5.63;;;2.47;;
5157;SDS011;2598;52.364;9.772;2024-02-26T00:20:07;5.13;;;2.10;;
5157;SDS011;2598;52.364;9.772;2024-02-26T00:22:33;4.40;;;2.03;;
5157;SDS011;2598;52.364;9.772;2024-02-26T00:24:59;7.67;;;2.83;;
5157;SDS011;2598;52.364;9.772;2024-02-26T00:27:25;7.07;;;3.10;;
5157;SDS011;2598;52.364;9.772;2024-02-26T00:29:51;6.90;;;3.13;;
5157;SDS011;2598;52.364;9.772;2024-02-26T00:32:17;5.93;;;2.20;;
5157;SDS011;2598;52.364;9.772;2024-02-26T00:34:43;5.57;;;2.40;;
5157;SDS011;2598;52.364;9.772;2024-02-26T00:37:09;7.33;;;2.50;;
5157;SDS011;2598;52.364;9.772;2024-02-26T00:39:35;5.30;;;2.50;;
5157;SDS011;2598;52.364;9.772;2024-02-26T00:42:01;6.90;;;2.73;;
5157;SDS011;2598;52.364;9.772;2024-02-26T00:44:27;7.20;;;2.10;;
5157;SDS011;2598;52.364;9.772;2024-02-26T00:46:53;5.73;;;2.30;;
5157;SDS011;2598;52.364;9.772;2024-02-26T00:49:19;5.83;;;2.10;;
5157;SDS011;2598;52.364;9.772;2024-02-26T00:51:45;5.37;;;2.30;;
5157;SDS011;2598;52.364;9.772;2024-02-26T00:54:11;4.43;;;2.13;;
5157;SDS011;2598;52.364;9.772;2024-02-26T00:56:38;4.53;;;1.80;;
5157;SDS011;2598;52.364;9.772;2024-02-26T00:59:03;5.43;;;2.43;;
5157;SDS011;2598;52.364;9.772;2024-02-26T01:01:29;4.90;;;1.87;;
5157;SDS011;2598;52.364;9.772;2024-02-26T01:03:55;6.40;;;2.00;;
5157;SDS011;2598;52.364;9.772;2024-02-26T01:06:21;4.53;;;1.63;;
5157;SDS011;2598;52.364;9.772;2024-02-26T01:08:47;6.70;;;2.23;;
5157;SDS011;2598;52.364;9.772;2024-02-26T01:11:13;3.60;;;1.50;;
5157;SDS011;2598;52.364;9.772;2024-02-26T01:13:39;4.63;;;1.67;;
5157;SDS011;2598;52.364;9.772;2024-02-26T01:16:05;7.37;;;1.97;;
5157;SDS011;2598;52.364;9.772;2024-02-26T01:18:31;6.13;;;2.60;;
5157;SDS011;2598;52.364;9.772;2024-02-26T01:20:57;4.20;;;1.60;;
5157;SDS011;2598;52.364;9.772;2024-02-26T01:23:23;4.93;;;1.67;;
5157;SDS011;2598;52.364;9.772;2024-02-26T01:25:49;4.03;;;1.33;;
5157;SDS011;2598;52.364;9.772;2024-02-26T01:28:15;6.23;;;2.20;;
5157;SDS011;2598;52.364;9.772;2024-02-26T01:30:41;4.00;;;1.50;;
5157;SDS011;2598;52.364;9.772;2024-02-26T01:33:07;5.70;;;1.87;;
5157;SDS011;2598;52.364;9.772;2024-02-26T01:35:33;8.30;;;1.97;;
5157;SDS011;2598;52.364;9.772;2024-02-26T01:37:59;5.97;;;1.97;;
5157;SDS011;2598;52.364;9.772;2024-02-26T01:40:28;5.00;;;1.57;;
5157;SDS011;2598;52.364;9.772;2024-02-26T01:42:54;4.23;;;1.93;;
5157;SDS011;2598;52.364;9.772;2024-02-26T01:45:20;5.17;;;2.03;;
5157;SDS011;2598;52.364;9.772;2024-02-26T01:47:52;4.43;;;1.60;;
5157;SDS011;2598;52.364;9.772;2024-02-26T01:50:18;4.63;;;1.83;;
5157;SDS011;2598;52.364;9.772;2024-02-26T01:52:45;3.53;;;1.40;;
5157;SDS011;2598;52.364;9.772;2024-02-26T01:55:13;4.73;;;2.13;;
5157;SDS011;2598;52.364;9.772;2024-02-26T01:57:40;4.13;;;1.40;;
5157;SDS011;2598;52.364;9.772;2024-02-26T02:00:06;5.10;;;1.50;;
5157;SDS011;2598;52.364;9.772;2024-02-26T02:02:32;9.43;;;1.80;;
5157;SDS011;2598;52.364;9.772;2024-02-26T02:04:58;3.67;;;1.20;;
5157;SDS011;2598;52.364;9.772;2024-02-26T02:07:24;3.93;;;1.80;;
5157;SDS011;2598;52.364;9.772;2024-02-26T02:09:50;4.17;;;1.50;;
5157;SDS011;2598;52.364;9.772;2024-02-26T02:12:16;4.50;;;1.60;;
5157;SDS011;2598;52.364;9.772;2024-02-26T02:14:42;3.67;;;1.40;;
5157;SDS011;2598;52.364;9.772;2024-02-26T02:17:08;4.97;;;1.67;;
5157;SDS011;2598;52.364;9.772;2024-02-26T02:19:34;6.60;;;2.10;;
5157;SDS011;2598;52.364;9.772;2024-02-26T02:22:00;7.13;;;1.43;;
5157;SDS011;2598;52.364;9.772;2024-02-26T02:24:26;5.23;;;1.70;;
5157;SDS011;2598;52.364;9.772;2024-02-26T02:26:52;4.17;;;1.40;;
5157;SDS011;2598;52.364;9.772;2024-02-26T02:29:18;3.50;;;1.23;;
5157;SDS011;2598;52.364;9.772;2024-02-26T02:31:44;4.37;;;1.53;;
5157;SDS011;2598;52.364;9.772;2024-02-26T02:34:10;5.80;;;1.63;;
5157;SDS011;2598;52.364;9.772;2024-02-26T02:36:47;4.17;;;1.33;;
5157;SDS011;2598;52.364;9.772;2024-02-26T02:39:13;5.40;;;1.60;;
5157;SDS011;2598;52.364;9.772;2024-02-26T02:41:41;6.70;;;1.70;;
5157;SDS011;2598;52.364;9.772;2024-02-26T02:44:07;3.97;;;1.57;;
5157;SDS011;2598;52.364;9.772;2024-02-26T02:46:32;5.77;;;1.57;;
5157;SDS011;2598;52.364;9.772;2024-02-26T02:49:00;3.70;;;1.37;;
5157;SDS011;2598;52.364;9.772;2024-02-26T02:51:26;5.27;;;2.00;;
5157;SDS011;2598;52.364;9.772;2024-02-26T02:53:52;4.13;;;1.30;;
5157;SDS011;2598;52.364;9.772;2024-02-26T02:56:18;5.90;;;1.50;;
5157;SDS011;2598;52.364;9.772;2024-02-26T02:58:44;3.97;;;1.20;;
5157;SDS011;2598;52.364;9.772;2024-02-26T03:01:10;4.20;;;1.27;;
5157;SDS011;2598;52.364;9.772;2024-02-26T03:03:36;3.73;;;1.37;;
5157;SDS011;2598;52.364;9.772;2024-02-26T03:06:02;4.43;;;1.67;;
5157;SDS011;2598;52.364;9.772;2024-02-26T03:08:28;3.90;;;1.37;;
5157;SDS011;2598;52.364;9.772;2024-02-26T03:10:54;6.30;;;1.63;;
5157;SDS011;2598;52.364;9.772;2024-02-26T03:13:21;3.70;;;1.37;;
5157;SDS011;2598;52.364;9.772;2024-02-26T03:15:47;4.37;;;1.37;;
5157;SDS011;2598;52.364;9.772;2024-02-26T03:18:12;4.53;;;1.77;;
5157;SDS011;2598;52.364;9.772;2024-02-26T03:20:38;4.33;;;1.60;;
5157;SDS011;2598;52.364;9.772;2024-02-26T03:23:04;3.73;;;1.53;;
5157;SDS011;2598;52.364;9.772;2024-02-26T03:25:30;5.03;;;1.60;;
5157;SDS011;2598;52.364;9.772;2024-02-26T03:27:56;3.70;;;1.10;;
5157;SDS011;2598;52.364;9.772;2024-02-26T03:30:22;4.23;;;1.27;;
5157;SDS011;2598;52.364;9.772;2024-02-26T03:32:48;4.07;;;1.20;;
5157;SDS011;2598;52.364;9.772;2024-02-26T03:35:14;3.90;;;1.40;;
5157;SDS011;2598;52.364;9.772;2024-02-26T03:37:40;3.73;;;1.30;;
5157;SDS011;2598;52.364;9.772;2024-02-26T03:40:06;5.60;;;1.50;;
5157;SDS011;2598;52.364;9.772;2024-02-26T03:42:33;3.37;;;1.10;;
5157;SDS011;2598;52.364;9.772;2024-02-26T03:44:58;5.47;;;1.97;;
5157;SDS011;2598;52.364;9.772;2024-02-26T03:47:24;4.30;;;1.37;;
5157;SDS011;2598;52.364;9.772;2024-02-26T03:49:50;4.27;;;1.33;;
5157;SDS011;2598;52.364;9.772;2024-02-26T03:52:16;3.90;;;1.33;;
5157;SDS011;2598;52.364;9.772;2024-02-26T03:54:42;3.40;;;1.10;;
5157;SDS011;2598;52.364;9.772;2024-02-26T03:57:08;5.70;;;1.50;;
5157;SDS011;2598;52.364;9.772;2024-02-26T03:59:34;4.47;;;1.33;;
5157;SDS011;2598;52.364;9.772;2024-02-26T04:02:00;4.23;;;1.00;;
5157;SDS011;2598;52.364;9.772;2024-02-26T04:04:27;4.20;;;1.10;;
5157;SDS011;2598;52.364;9.772;2024-02-26T04:06:53;3.50;;;1.17;;
5157;SDS011;2598;52.364;9.772;2024-02-26T04:09:19;4.50;;;1.40;;
5157;SDS011;2598;52.364;9.772;2024-02-26T04:11:45;5.37;;;1.17;;
5157;SDS011;2598;52.364;9.772;2024-02-26T04:14:11;3.90;;;1.20;;
5157;SDS011;2598;52.364;9.772;2024-02-26T04:16:37;3.80;;;1.00;;
5157;SDS011;2598;52.364;9.772;2024-02-26T04:19:04;4.60;;;1.47;;
5157;SDS011;2598;52.364;9.772;2024-02-26T04:21:29;4.00;;;1.50;;
5157;SDS011;2598;52.364;9.772;2024-02-26T04:23:56;5.80;;;1.47;;
5157;SDS011;2598;52.364;9.772;2024-02-26T04:26:25;4.27;;;1.37;;
5157;SDS011;2598;52.364;9.772;2024-02-26T04:28:51;4.10;;;1.20;;
5157;SDS011;2598;52.364;9.772;2024-02-26T04:31:18;3.70;;;1.27;;
5157;SDS011;2598;52.364;9.772;2024-02-26T04:33:44;5.03;;;1.20;;
5157;SDS011;2598;52.364;9.772;2024-02-26T04:36:13;3.70;;;1.20;;
5157;SDS011;2598;52.364;9.772;2024-02-26T04:38:40;4.00;;;1.20;;
5157;SDS011;2598;52.364;9.772;2024-02-26T04:41:06;4.53;;;1.33;;
5157;SDS011;2598;52.364;9.772;2024-02-26T04:43:32;4.90;;;1.20;;
5157;SDS011;2598;52.364;9.772;2024-02-26T04:45:58;4.63;;;1.40;;
5157;SDS011;2598;52.364;9.772;2024-02-26T04:48:24;3.97;;;1.30;;
5157;SDS011;2598;52.364;9.772;2024-02-26T04:50:50;5.23;;;1.40;;
5157;SDS011;2598;52.364;9.772;2024-02-26T04:53:16;3.73;;;1.27;;
5157;SDS011;2598;52.364;9.772;2024-02-26T04:55:42;4.20;;;1.50;;
5157;SDS011;2598;52.364;9.772;2024-02-26T04:58:08;3.67;;;1.40;;
5157;SDS011;2598;52.364;9.772;2024-02-26T05:00:35;4.20;;;1.60;;
5157;SDS011;2598;52.364;9.772;2024-02-26T05:03:01;3.80;;;1.27;;
5157;SDS011;2598;52.364;9.772;2024-02-26T05:05:27;4.30;;;1.33;;
5157;SDS011;2598;52.364;9.772;2024-02-26T05:07:53;6.07;;;1.63;;
5157;SDS011;2598;52.364;9.772;2024-02-26T05:10:19;4.40;;;1.20;;
5157;SDS011;2598;52.364;9.772;2024-02-26T05:12:45;3.67;;;1.30;;
5157;SDS011;2598;52.364;9.772;2024-02-26T05:15:10;6.60;;;1.63;;
5157;SDS011;2598;52.364;9.772;2024-02-26T05:17:42;3.90;;;1.30;;
5157;SDS011;2598;52.364;9.772;2024-02-26T05:20:09;4.30;;;1.30;;
5157;SDS011;2598;52.364;9.772;2024-02-26T05:22:35;5.43;;;1.40;;
5157;SDS011;2598;52.364;9.772;2024-02-26T05:25:00;4.00;;;1.50;;
5157;SDS011;2598;52.364;9.772;2024-02-26T05:27:26;4.57;;;1.50;;
5157;SDS011;2598;52.364;9.772;2024-02-26T05:29:52;4.90;;;1.50;;
5157;SDS011;2598;52.364;9.772;2024-02-26T05:32:19;4.60;;;1.57;;
5157;SDS011;2598;52.364;9.772;2024-02-26T05:34:45;4.10;;;1.73;;
5157;SDS011;2598;52.364;9.772;2024-02-26T05:37:11;3.70;;;1.30;;
5157;SDS011;2598;52.364;9.772;2024-02-26T05:39:37;4.73;;;1.60;;
5157;SDS011;2598;52.364;9.772;2024-02-26T05:42:04;5.50;;;1.60;;
5157;SDS011;2598;52.364;9.772;2024-02-26T05:44:30;9.60;;;1.87;;
5157;SDS011;2598;52.364;9.772;2024-02-26T05:46:56;7.10;;;2.07;;
5157;SDS011;2598;52.364;9.772;2024-02-26T05:49:22;5.00;;;1.57;;
5157;SDS011;2598;52.364;9.772;2024-02-26T05:51:48;4.40;;;1.43;;
5157;SDS011;2598;52.364;9.772;2024-02-26T05:54:14;6.20;;;1.37;;
5157;SDS011;2598;52.364;9.772;2024-02-26T05:56:40;7.50;;;1.77;;
5157;SDS011;2598;52.364;9.772;2024-02-26T05:59:06;4.13;;;1.40;;
5157;SDS011;2598;52.364;9.772;2024-02-26T06:01:32;5.53;;;1.77;;
5157;SDS011;2598;52.364;9.772;2024-02-26T06:03:58;3.70;;;1.30;;
5157;SDS011;2598;52.364;9.772;2024-02-26T06:06:24;5.93;;;1.47;;
5157;SDS011;2598;52.364;9.772;2024-02-26T06:08:50;3.43;;;1.20;;
5157;SDS011;2598;52.364;9.772;2024-02-26T06:11:16;4.07;;;1.63;;
5157;SDS011;2598;52.364;9.772;2024-02-26T06:13:42;4.33;;;1.50;;
5157;SDS011;2598;52.364;9.772;2024-02-26T06:16:08;4.00;;;1.30;;
5157;SDS011;2598;52.364;9.772;2024-02-26T06:18:34;4.50;;;1.80;;
5157;SDS011;2598;52.364;9.772;2024-02-26T06:21:00;4.60;;;1.50;;
5157;SDS011;2598;52.364;9.772;2024-02-26T06:23:26;5.93;;;1.97;;
5157;SDS011;2598;52.364;9.772;2024-02-26T06:25:52;4.03;;;1.80;;
5157;SDS011;2598;52.364;9.772;2024-02-26T06:28:18;3.77;;;1.30;;
5157;SDS011;2598;52.364;9.772;2024-02-26T06:30:44;4.33;;;1.60;;
5157;SDS011;2598;52.364;9.772;2024-02-26T06:33:11;4.87;;;1.60;;
5157;SDS011;2598;52.364;9.772;2024-02-26T06:35:37;4.50;;;1.70;;
5157;SDS011;2598;52.364;9.772;2024-02-26T06:38:03;4.20;;;1.40;;
5157;SDS011;2598;52.364;9.772;2024-02-26T06:40:29;4.73;;;1.77;;
5157;SDS011;2598;52.364;9.772;2024-02-26T06:42:55;5.10;;;1.73;;
5157;SDS011;2598;52.364;9.772;2024-02-26T06:45:22;4.30;;;1.70;;
5157;SDS011;2598;52.364;9.772;2024-02-26T06:47:47;4.57;;;1.70;;
5157;SDS011;2598;52.364;9.772;2024-02-26T06:50:13;5.90;;;1.80;;
5157;SDS011;2598;52.364;9.772;2024-02-26T06:52:39;5.13;;;1.67;;
5157;SDS011;2598;52.364;9.772;2024-02-26T06:55:05;4.17;;;1.83;;
5157;SDS011;2598;52.364;9.772;2024-02-26T06:57:33;4.70;;;1.70;;
5157;SDS011;2598;52.364;9.772;2024-02-26T06:59:59;4.90;;;1.90;;
5157;SDS011;2598;52.364;9.772;2024-02-26T07:02:25;6.37;;;2.20;;
5157;SDS011;2598;52.364;9.772;2024-02-26T07:04:51;5.80;;;1.93;;
5157;SDS011;2598;52.364;9.772;2024-02-26T07:07:17;4.53;;;1.90;;
5157;SDS011;2598;52.364;9.772;2024-02-26T07:09:44;4.70;;;1.80;;
5157;SDS011;2598;52.364;9.772;2024-02-26T07:12:10;6.70;;;1.80;;
5157;SDS011;2598;52.364;9.772;2024-02-26T07:14:36;4.97;;;1.80;;
5157;SDS011;2598;52.364;9.772;2024-02-26T07:17:02;6.10;;;2.00;;
5157;SDS011;2598;52.364;9.772;2024-02-26T07:19:28;5.03;;;2.10;;
5157;SDS011;2598;52.364;9.772;2024-02-26T07:21:54;4.90;;;2.17;;
5157;SDS011;2598;52.364;9.772;2024-02-26T07:24:20;5.10;;;1.90;;
5157;SDS011;2598;52.364;9.772;2024-02-26T07:26:47;5.07;;;2.10;;
5157;SDS011;2598;52.364;9.772;2024-02-26T07:29:13;4.53;;;2.00;;
5157;SDS011;2598;52.364;9.772;2024-02-26T07:31:39;5.30;;;2.57;;
5157;SDS011;2598;52.364;9.772;2024-02-26T07:34:05;4.60;;;2.33;;
5157;SDS011;2598;52.364;9.772;2024-02-26T07:36:31;6.13;;;2.20;;
5157;SDS011;2598;52.364;9.772;2024-02-26T07:38:57;5.17;;;2.30;;
5157;SDS011;2598;52.364;9.772;2024-02-26T07:41:23;4.93;;;1.80;;
5157;SDS011;2598;52.364;9.772;2024-02-26T07:43:49;4.33;;;2.40;;
5157;SDS011;2598;52.364;9.772;2024-02-26T07:46:15;7.03;;;2.37;;
5157;SDS011;2598;52.364;9.772;2024-02-26T07:48:41;4.70;;;1.87;;
5157;SDS011;2598;52.364;9.772;2024-02-26T07:51:07;7.03;;;2.60;;
5157;SDS011;2598;52.364;9.772;2024-02-26T07:53:33;5.50;;;2.47;;
5157;SDS011;2598;52.364;9.772;2024-02-26T07:55:59;4.83;;;1.90;;
5157;SDS011;2598;52.364;9.772;2024-02-26T07:58:25;5.33;;;2.10;;
5157;SDS011;2598;52.364;9.772;2024-02-26T08:00:51;5.40;;;2.27;;
5157;SDS011;2598;52.364;9.772;2024-02-26T08:03:17;5.23;;;2.33;;
5157;SDS011;2598;52.364;9.772;2024-02-26T08:05:43;5.43;;;2.20;;
5157;SDS011;2598;52.364;9.772;2024-02-26T08:08:09;4.47;;;1.70;;
5157;SDS011;2598;52.364;9.772;2024-02-26T08:10:35;5.80;;;2.27;;
5157;SDS011;2598;52.364;9.772;2024-02-26T08:13:01;11.37;;;2.07;;
5157;SDS011;2598;52.364;9.772;2024-02-26T08:15:30;4.30;;;1.77;;
5157;SDS011;2598;52.364;9.772;2024-02-26T08:17:57;5.00;;;2.27;;
5157;SDS011;2598;52.364;9.772;2024-02-26T08:20:23;4.90;;;1.93;;
5157;SDS011;2598;52.364;9.772;2024-02-26T08:22:49;4.10;;;1.70;;
5157;SDS011;2598;52.364;9.772;2024-02-26T08:25:15;5.80;;;2.50;;
5157;SDS011;2598;52.364;9.772;2024-02-26T08:27:41;4.80;;;2.50;;
5157;SDS011;2598;52.364;9.772;2024-02-26T08:30:07;4.83;;;1.93;;
5157;SDS011;2598;52.364;9.772;2024-02-26T08:32:34;7.53;;;2.20;;
5157;SDS011;2598;52.364;9.772;2024-02-26T08:35:00;7.47;;;2.03;;
5157;SDS011;2598;52.364;9.772;2024-02-26T08:37:26;4.73;;;1.97;;
5157;SDS011;2598;52.364;9.772;2024-02-26T08:39:52;4.93;;;1.90;;
5157;SDS011;2598;52.364;9.772;2024-02-26T08:42:17;4.43;;;2.00;;
5157;SDS011;2598;52.364;9.772;2024-02-26T08:44:43;8.93;;;2.20;;
5157;SDS011;2598;52.364;9.772;2024-02-26T08:47:09;4.10;;;1.60;;
5157;SDS011;2598;52.364;9.772;2024-02-26T08:49:35;4.27;;;1.70;;
5157;SDS011;2598;52.364;9.772;2024-02-26T08:52:01;4.40;;;1.53;;
5157;SDS011;2598;52.364;9.772;2024-02-26T08:54:27;5.10;;;2.03;;
5157;SDS011;2598;52.364;9.772;2024-02-26T08:56:53;4.13;;;1.50;;
5157;SDS011;2598;52.364;9.772;2024-02-26T08:59:19;4.37;;;1.93;;
5157;SDS011;2598;52.364;9.772;2024-02-26T09:01:47;4.73;;;1.70;;
5157;SDS011;2598;52.364;9.772;2024-02-26T09:04:13;4.33;;;1.83;;
5157;SDS011;2598;52.364;9.772;2024-02-26T09:06:39;3.67;;;1.30;;
5157;SDS011;2598;52.364;9.772;2024-02-26T09:09:05;3.47;;;1.43;;
5157;SDS011;2598;52.364;9.772;2024-02-26T09:11:31;4.17;;;1.93;;
5157;SDS011;2598;52.364;9.772;2024-02-26T09:13:57;4.87;;;1.77;;
5157;SDS011;2598;52.364;9.772;2024-02-26T09:16:23;3.83;;;1.63;;
5157;SDS011;2598;52.364;9.772;2024-02-26T09:18:49;6.67;;;1.67;;
5157;SDS011;2598;52.364;9.772;2024-02-26T09:21:15;4.37;;;1.70;;
5157;SDS011;2598;52.364;9.772;2024-02-26T09:23:43;4.10;;;1.37;;
5157;SDS011;2598;52.364;9.772;2024-02-26T09:26:09;3.80;;;1.60;;
5157;SDS011;2598;52.364;9.772;2024-02-26T09:28:35;5.10;;;1.43;;
5157;SDS011;2598;52.364;9.772;2024-02-26T09:31:03;3.43;;;1.27;;
5157;SDS011;2598;52.364;9.772;2024-02-26T09:33:29;3.20;;;1.23;;
5157;SDS011;2598;52.364;9.772;2024-02-26T09:35:55;5.77;;;1.60;;
5157;SDS011;2598;52.364;9.772;2024-02-26T09:38:21;5.00;;;1.83;;
5157;SDS011;2598;52.364;9.772;2024-02-26T09:40:48;3.57;;;1.27;;
5157;SDS011;2598;52.364;9.772;2024-02-26T09:43:15;4.93;;;1.30;;
5157;SDS011;2598;52.364;9.772;2024-02-26T09:45:43;4.70;;;1.40;;
5157;SDS011;2598;52.364;9.772;2024-02-26T09:48:09;3.90;;;1.50;;
5157;SDS011;2598;52.364;9.772;2024-02-26T09:50:35;10.43;;;1.43;;
5157;SDS011;2598;52.364;9.772;2024-02-26T09:53:02;4.50;;;1.40;;
5157;SDS011;2598;52.364;9.772;2024-02-26T09:55:30;6.83;;;1.60;;
5157;SDS011;2598;52.364;9.772;2024-02-26T09:57:56;4.53;;;1.40;;
5157;SDS011;2598;52.364;9.772;2024-02-26T10:00:23;3.50;;;1.10;;
5157;SDS011;2598;52.364;9.772;2024-02-26T10:02:51;5.13;;;1.33;;
5157;SDS011;2598;52.364;9.772;2024-02-26T10:05:18;3.93;;;1.33;;
5157;SDS011;2598;52.364;9.772;2024-02-26T10:07:44;3.27;;;1.20;;
5157;SDS011;2598;52.364;9.772;2024-02-26T10:10:11;3.50;;;1.20;;
5157;SDS011;2598;52.364;9.772;2024-02-26T10:12:37;4.70;;;1.47;;
5157;SDS011;2598;52.364;9.772;2024-02-26T10:15:03;10.20;;;1.57;;
5157;SDS011;2598;52.364;9.772;2024-02-26T10:17:29;3.93;;;1.17;;
5157;SDS011;2598;52.364;9.772;2024-02-26T10:20:11;4.20;;;1.40;;
5157;SDS011;2598;52.364;9.772;2024-02-26T10:22:38;3.93;;;1.43;;
5157;SDS011;2598;52.364;9.772;2024-02-26T10:25:04;3.20;;;0.97;;
5157;SDS011;2598;52.364;9.772;2024-02-26T10:27:30;3.60;;;1.30;;
5157;SDS011;2598;52.364;9.772;2024-02-26T10:29:57;5.00;;;1.40;;
5157;SDS011;2598;52.364;9.772;2024-02-26T10:32:23;4.80;;;1.37;;
5157;SDS011;2598;52.364;9.772;2024-02-26T10:34:55;4.90;;;1.20;;
5157;SDS011;2598;52.364;9.772;2024-02-26T10:37:22;3.47;;;1.20;;
5157;SDS011;2598;52.364;9.772;2024-02-26T10:39:48;5.00;;;1.37;;
5157;SDS011;2598;52.364;9.772;2024-02-26T10:42:14;3.47;;;1.33;;
5157;SDS011;2598;52.364;9.772;2024-02-26T10:44:42;5.10;;;1.40;;
5157;SDS011;2598;52.364;9.772;2024-02-26T10:47:10;4.90;;;1.53;;
5157;SDS011;2598;52.364;9.772;2024-02-26T10:49:36;4.30;;;1.30;;
5157;SDS011;2598;52.364;9.772;2024-02-26T10:52:02;4.07;;;1.40;;
5157;SDS011;2598;52.364;9.772;2024-02-26T10:54:29;4.20;;;1.30;;
5157;SDS011;2598;52.364;9.772;2024-02-26T10:56:55;3.50;;;1.43;;
5157;SDS011;2598;52.364;9.772;2024-02-26T10:59:22;3.63;;;1.33;;
5157;SDS011;2598;52.364;9.772;2024-02-26T11:01:48;4.20;;;1.50;;
5157;SDS011;2598;52.364;9.772;2024-02-26T11:04:15;3.43;;;1.13;;
5157;SDS011;2598;52.364;9.772;2024-02-26T11:06:42;6.53;;;1.40;;
5157;SDS011;2598;52.364;9.772;2024-02-26T11:09:08;5.20;;;1.20;;
5157;SDS011;2598;52.364;9.772;2024-02-26T11:11:38;7.60;;;1.40;;
5157;SDS011;2598;52.364;9.772;2024-02-26T11:14:05;3.50;;;1.10;;
5157;SDS011;2598;52.364;9.772;2024-02-26T11:16:32;3.90;;;1.00;;
5157;SDS011;2598;52.364;9.772;2024-02-26T11:19:00;4.80;;;1.80;;
5157;SDS011;2598;52.364;9.772;2024-02-26T11:21:26;3.93;;;1.33;;
5157;SDS011;2598;52.364;9.772;2024-02-26T11:24:03;3.77;;;1.30;;
5157;SDS011;2598;52.364;9.772;2024-02-26T11:26:29;12.53;;;1.30;;
5157;SDS011;2598;52.364;9.772;2024-02-26T11:28:55;3.90;;;1.30;;
5157;SDS011;2598;52.364;9.772;2024-02-26T11:31:24;4.50;;;1.27;;
5157;SDS011;2598;52.364;9.772;2024-02-26T11:33:52;4.27;;;1.27;;
5157;SDS011;2598;52.364;9.772;2024-02-26T11:36:18;5.37;;;1.97;;
5157;SDS011;2598;52.364;9.772;2024-02-26T11:38:45;5.57;;;1.60;;
5157;SDS011;2598;52.364;9.772;2024-02-26T11:41:16;6.07;;;1.90;;
5157;SDS011;2598;52.364;9.772;2024-02-26T11:43:49;9.53;;;1.47;;
5157;SDS011;2598;52.364;9.772;2024-02-26T11:46:29;14.57;;;1.90;;
5157;SDS011;2598;52.364;9.772;2024-02-26T11:51:26;5.53;;;1.70;;
5157;SDS011;2598;52.364;9.772;2024-02-26T11:53:52;4.50;;;1.20;;
5157;SDS011;2598;52.364;9.772;2024-02-26T11:58:45;4.43;;;1.30;;
5157;SDS011;2598;52.364;9.772;2024-02-26T12:03:55;5.17;;;1.10;;
5157;SDS011;2598;52.364;9.772;2024-02-26T12:06:22;4.63;;;1.37;;
5157;SDS011;2598;52.364;9.772;2024-02-26T12:08:48;4.37;;;1.33;;
5157;SDS011;2598;52.364;9.772;2024-02-26T12:11:14;3.30;;;1.00;;
5157;SDS011;2598;52.364;9.772;2024-02-26T12:13:41;4.40;;;1.80;;
5157;SDS011;2598;52.364;9.772;2024-02-26T12:16:08;4.00;;;1.30;;
5157;SDS011;2598;52.364;9.772;2024-02-26T12:18:34;8.23;;;2.00;;
5157;SDS011;2598;52.364;9.772;2024-02-26T12:21:00;4.47;;;1.73;;
5157;SDS011;2598;52.364;9.772;2024-02-26T12:23:26;4.67;;;1.77;;
5157;SDS011;2598;52.364;9.772;2024-02-26T12:25:53;6.33;;;1.30;;
5157;SDS011;2598;52.364;9.772;2024-02-26T12:28:19;4.30;;;1.57;;
5157;SDS011;2598;52.364;9.772;2024-02-26T12:30:45;3.97;;;1.63;;
5157;SDS011;2598;52.364;9.772;2024-02-26T12:33:11;4.60;;;1.47;;
5157;SDS011;2598;52.364;9.772;2024-02-26T12:35:37;4.90;;;1.60;;
5157;SDS011;2598;52.364;9.772;2024-02-26T12:38:03;4.37;;;1.60;;
5157;SDS011;2598;52.364;9.772;2024-02-26T12:40:29;4.77;;;1.80;;
5157;SDS011;2598;52.364;9.772;2024-02-26T12:42:55;3.93;;;1.50;;
5157;SDS011;2598;52.364;9.772;2024-02-26T12:45:21;5.47;;;1.50;;
5157;SDS011;2598;52.364;9.772;2024-02-26T12:47:47;9.60;;;1.80;;
5157;SDS011;2598;52.364;9.772;2024-02-26T12:50:16;10.10;;;1.63;;
5157;SDS011;2598;52.364;9.772;2024-02-26T12:52:43;4.63;;;1.60;;
5157;SDS011;2598;52.364;9.772;2024-02-26T12:55:09;5.30;;;1.60;;
5157;SDS011;2598;52.364;9.772;2024-02-26T12:57:37;7.07;;;2.13;;
5157;SDS011;2598;52.364;9.772;2024-02-26T13:00:07;6.57;;;1.67;;
5157;SDS011;2598;52.364;9.772;2024-02-26T13:02:36;4.33;;;1.73;;
5157;SDS011;2598;52.364;9.772;2024-02-26T13:05:03;5.67;;;1.80;;
5157;SDS011;2598;52.364;9.772;2024-02-26T13:07:30;4.40;;;1.70;;
5157;SDS011;2598;52.364;9.772;2024-02-26T13:09:56;5.40;;;1.90;;
5157;SDS011;2598;52.364;9.772;2024-02-26T13:12:22;5.43;;;2.03;;
5157;SDS011;2598;52.364;9.772;2024-02-26T13:14:57;4.73;;;2.03;;
5157;SDS011;2598;52.364;9.772;2024-02-26T13:17:23;6.87;;;2.10;;
5157;SDS011;2598;52.364;9.772;2024-02-26T13:19:52;5.93;;;1.70;;
5157;SDS011;2598;52.364;9.772;2024-02-26T13:22:20;4.90;;;1.90;;
5157;SDS011;2598;52.364;9.772;2024-02-26T13:24:53;4.50;;;2.13;;
5157;SDS011;2598;52.364;9.772;2024-02-26T13:27:25;10.00;;;2.30;;
5157;SDS011;2598;52.364;9.772;2024-02-26T13:32:31;5.03;;;1.87;;
5157;SDS011;2598;52.364;9.772;2024-02-26T13:35:04;5.33;;;1.67;;
5157;SDS011;2598;52.364;9.772;2024-02-26T13:37:31;6.00;;;1.73;;
5157;SDS011;2598;52.364;9.772;2024-02-26T13:39:57;4.97;;;2.07;;
5157;SDS011;2598;52.364;9.772;2024-02-26T13:42:23;5.00;;;1.70;;
5157;SDS011;2598;52.364;9.772;2024-02-26T13:44:49;5.30;;;2.00;;
5157;SDS011;2598;52.364;9.772;2024-02-26T13:47:14;10.20;;;2.17;;
5157;SDS011;2598;52.364;9.772;2024-02-26T13:49:41;6.10;;;2.07;;
5157;SDS011;2598;52.364;9.772;2024-02-26T13:52:07;4.00;;;1.57;;
5157;SDS011;2598;52.364;9.772;2024-02-26T13:54:33;7.70;;;2.17;;
5157;SDS011;2598;52.364;9.772;2024-02-26T13:56:59;4.13;;;1.73;;
5157;SDS011;2598;52.364;9.772;2024-02-26T13:59:25;4.80;;;1.73;;
5157;SDS011;2598;52.364;9.772;2024-02-26T14:01:51;4.07;;;1.70;;
5157;SDS011;2598;52.364;9.772;2024-02-26T14:04:18;4.70;;;1.70;;
5157;SDS011;2598;52.364;9.772;2024-02-26T14:06:43;4.27;;;1.63;;
5157;SDS011;2598;52.364;9.772;2024-02-26T14:09:09;5.13;;;1.60;;
5157;SDS011;2598;52.364;9.772;2024-02-26T14:11:35;4.00;;;1.50;;
5157;SDS011;2598;52.364;9.772;2024-02-26T14:14:02;8.47;;;1.40;;
5157;SDS011;2598;52.364;9.772;2024-02-26T14:16:28;5.53;;;1.50;;
5157;SDS011;2598;52.364;9.772;2024-02-26T14:18:54;4.80;;;1.63;;
5157;SDS011;2598;52.364;9.772;2024-02-26T14:21:20;3.97;;;1.30;;
5157;SDS011;2598;52.364;9.772;2024-02-26T14:23:46;5.43;;;1.63;;
5157;SDS011;2598;52.364;9.772;2024-02-26T14:26:12;9.40;;;1.43;;
5157;SDS011;2598;52.364;9.772;2024-02-26T14:28:38;4.47;;;1.60;;
5157;SDS011;2598;52.364;9.772;2024-02-26T14:31:05;6.10;;;1.73;;
5157;SDS011;2598;52.364;9.772;2024-02-26T14:33:36;4.93;;;1.73;;
5157;SDS011;2598;52.364;9.772;2024-02-26T14:36:02;3.77;;;1.20;;
5157;SDS011;2598;52.364;9.772;2024-02-26T14:38:28;4.83;;;1.70;;
5157;SDS011;2598;52.364;9.772;2024-02-26T14:40:55;4.20;;;1.57;;
5157;SDS011;2598;52.364;9.772;2024-02-26T14:43:21;4.30;;;1.47;;
5157;SDS011;2598;52.364;9.772;2024-02-26T14:45:47;5.00;;;1.60;;
5157;SDS011;2598;52.364;9.772;2024-02-26T14:48:13;4.60;;;1.87;;
5157;SDS011;2598;52.364;9.772;2024-02-26T14:50:39;7.73;;;1.83;;
5157;SDS011;2598;52.364;9.772;2024-02-26T14:53:05;4.70;;;1.50;;
5157;SDS011;2598;52.364;9.772;2024-02-26T14:55:31;5.17;;;1.87;;
5157;SDS011;2598;52.364;9.772;2024-02-26T14:57:57;6.07;;;1.83;;
5157;SDS011;2598;52.364;9.772;2024-02-26T15:00:23;5.17;;;1.70;;
5157;SDS011;2598;52.364;9.772;2024-02-26T15:02:49;6.17;;;2.10;;
5157;SDS011;2598;52.364;9.772;2024-02-26T15:05:16;5.43;;;1.83;;
5157;SDS011;2598;52.364;9.772;2024-02-26T15:07:44;11.50;;;1.80;;
5157;SDS011;2598;52.364;9.772;2024-02-26T15:10:10;4.37;;;1.60;;
5157;SDS011;2598;52.364;9.772;2024-02-26T15:12:36;5.50;;;2.00;;
5157;SDS011;2598;52.364;9.772;2024-02-26T15:15:02;5.40;;;2.10;;
5157;SDS011;2598;52.364;9.772;2024-02-26T15:17:28;5.00;;;2.00;;
5157;SDS011;2598;52.364;9.772;2024-02-26T15:19:57;3.97;;;1.70;;